Time;durP1;ratioP1;P1;durP2;ratioP2;P2;SDS_P1;SDS_P2;PMS_P1;PMS_P2;Temp;Humidity;BMP_temperature;BMP_pressure;BME280_temperature;BME280_humidity;BME280_pressure;Samples;Min_cycle;Max_cycle;Signal;HPM_P1;HPM_P2
2022/11/08 00:01:30;;;;;;;7.28;3.35;;;11.70;99.90;;;;;;10081271;28;20466;-67
2022/11/08 00:02:46;;;;;;;5.97;2.38;;;11.70;99.90;;;;;;10086461;28;20400;-68
2022/11/08 00:17:55;;;;;;;5.70;2.47;;;11.60;99.90;;;;;;10083122;28;20064;-67
2022/11/08 00:22:46;;;;;;;3.20;2.65;;;11.50;99.90;;;;;;10081010;28;20029;-66
2022/11/08 00:27:36;;;;;;;4.60;2.67;;;11.50;99.90;;;;;;10071366;28;20037;-65
2022/11/08 00:32:27;;;;;;;5.85;2.78;;;11.40;99.90;;;;;;10086403;28;20462;-66
2022/11/08 00:37:19;;;;;;;4.68;3.38;;;11.40;99.90;;;;;;10064010;28;20273;-64
2022/11/08 00:42:10;;;;;;;8.60;2.88;;;11.30;99.90;;;;;;10078654;28;20025;-65
2022/11/08 00:47:01;;;;;;;4.70;2.97;;;11.30;99.90;;;;;;10072077;28;20033;-64
2022/11/08 00:51:52;;;;;;;4.93;2.63;;;11.30;99.90;;;;;;10089676;28;20024;-63
2022/11/08 00:56:42;;;;;;;5.60;2.88;;;11.30;99.90;;;;;;10079103;28;20491;-64
2022/11/08 01:01:33;;;;;;;4.63;2.30;;;11.30;99.90;;;;;;10090342;28;20105;-64
2022/11/08 01:06:24;;;;;;;3.97;2.60;;;11.10;99.90;;;;;;10075598;28;20029;-65
2022/11/08 01:11:19;;;;;;;4.07;2.42;;;11.10;99.90;;;;;;10082936;28;20036;-66
2022/11/08 01:16:16;;;;;;;3.00;2.15;;;11.00;99.90;;;;;;10092263;28;20025;-65
2022/11/08 01:21:06;;;;;;;4.63;1.65;;;11.00;99.90;;;;;;10090369;28;20453;-64
2022/11/08 01:26:05;;;;;;;4.07;2.97;;;11.10;99.90;;;;;;10100098;28;20083;-64
2022/11/08 01:30:55;;;;;;;3.28;2.10;;;11.10;99.90;;;;;;10104459;28;20479;-64
2022/11/08 01:35:46;;;;;;;6.18;2.67;;;11.00;99.90;;;;;;10084493;28;20116;-65
2022/11/08 01:40:45;;;;;;;2.40;1.50;;;11.00;99.90;;;;;;10106670;28;20032;-64
2022/11/08 01:46:21;;;;;;;4.40;2.17;;;10.90;99.90;;;;;;10078124;28;20033;-64
2022/11/08 01:51:16;;;;;;;4.78;1.90;;;11.00;99.90;;;;;;10078924;28;20110;-63
2022/11/08 01:56:09;;;;;;;4.20;2.30;;;10.90;99.90;;;;;;10079032;28;20029;-64
2022/11/08 02:01:01;;;;;;;4.35;2.90;;;10.90;99.90;;;;;;10088884;28;20084;-64
2022/11/08 02:05:52;;;;;;;2.97;1.65;;;10.90;99.90;;;;;;10087901;28;20501;-64
2022/11/08 02:10:46;;;;;;;2.40;1.67;;;10.80;99.90;;;;;;10083722;28;20866;-64
2022/11/08 02:15:37;;;;;;;3.47;1.63;;;10.80;99.90;;;;;;10094492;28;20029;-65
2022/11/08 02:20:28;;;;;;;4.38;1.77;;;10.80;99.90;;;;;;10099057;28;20048;-65
2022/11/08 02:25:19;;;;;;;3.40;2.00;;;10.70;99.90;;;;;;10091386;28;20082;-65
2022/11/08 02:30:10;;;;;;;2.58;1.90;;;10.70;99.90;;;;;;10090862;28;20124;-65
2022/11/08 02:35:00;;;;;;;2.05;1.50;;;10.70;99.90;;;;;;10090643;28;20057;-66
2022/11/08 02:39:51;;;;;;;3.85;2.08;;;10.80;99.90;;;;;;10080913;28;20253;-66
2022/11/08 02:44:42;;;;;;;3.38;1.90;;;10.80;99.90;;;;;;10076623;28;20332;-66
2022/11/08 02:49:32;;;;;;;2.72;2.20;;;10.70;99.90;;;;;;10086729;28;20098;-66
2022/11/08 02:54:23;;;;;;;7.80;2.88;;;10.70;99.90;;;;;;10088287;28;20029;-65
2022/11/08 02:59:14;;;;;;;5.68;3.00;;;10.60;99.90;;;;;;10087374;28;20029;-66
2022/11/08 03:04:04;;;;;;;7.72;3.22;;;10.60;99.90;;;;;;10077703;28;20321;-69
2022/11/08 03:08:55;;;;;;;2.60;2.22;;;10.60;99.90;;;;;;10078367;28;20048;-66
2022/11/08 03:13:46;;;;;;;2.90;1.80;;;10.60;99.90;;;;;;10083761;28;20040;-66
2022/11/08 03:18:36;;;;;;;4.35;2.72;;;10.60;99.90;;;;;;10088738;28;20041;-66
2022/11/08 03:23:27;;;;;;;4.88;2.88;;;10.40;99.90;;;;;;10103665;28;20055;-66
2022/11/08 03:28:18;;;;;;;6.15;3.28;;;10.40;99.90;;;;;;10068769;28;20048;-66
2022/11/08 03:33:09;;;;;;;4.70;2.63;;;10.40;99.90;;;;;;10083873;28;20044;-65
2022/11/08 03:38:02;;;;;;;10.90;3.17;;;10.40;99.90;;;;;;10088135;28;20376;-66
2022/11/08 03:42:56;;;;;;;5.85;3.28;;;10.30;99.90;;;;;;10083573;28;20037;-66
2022/11/08 03:47:46;;;;;;;3.55;2.47;;;10.20;99.90;;;;;;10082843;28;20045;-65
2022/11/08 03:52:44;;;;;;;3.28;2.38;;;10.20;99.90;;;;;;10075677;28;20022;-62
2022/11/08 03:57:35;;;;;;;4.63;2.28;;;10.20;99.90;;;;;;10075325;28;20468;-64
2022/11/08 04:02:26;;;;;;;3.67;2.33;;;10.20;99.90;;;;;;10086412;28;20597;-65
2022/11/08 04:07:16;;;;;;;4.55;2.00;;;10.20;99.90;;;;;;10089032;28;20060;-64
2022/11/08 04:17:17;;;;;;;2.85;2.40;;;10.30;99.90;;;;;;10079867;28;20407;-65
2022/11/08 04:22:10;;;;;;;4.53;2.33;;;10.30;99.90;;;;;;10079565;28;20040;-63
2022/11/08 04:27:01;;;;;;;3.00;1.80;;;10.20;99.90;;;;;;10068062;28;20039;-64
2022/11/08 04:31:52;;;;;;;3.13;1.92;;;10.20;99.90;;;;;;10082876;28;20063;-65
2022/11/08 04:36:42;;;;;;;4.72;2.28;;;10.10;99.90;;;;;;10084072;28;20112;-65
2022/11/08 04:41:33;;;;;;;4.60;2.40;;;10.00;99.90;;;;;;10077429;28;20452;-66
2022/11/08 04:46:26;;;;;;;4.45;1.98;;;10.00;99.90;;;;;;10072714;28;20491;-66
2022/11/08 04:51:19;;;;;;;5.38;1.80;;;10.00;99.90;;;;;;10085221;28;20090;-66
2022/11/08 04:56:14;;;;;;;3.17;2.13;;;9.90;99.90;;;;;;10075347;28;20355;-67
2022/11/08 05:01:07;;;;;;;4.33;2.03;;;9.90;99.90;;;;;;10093959;28;20035;-67
2022/11/08 05:06:11;;;;;;;3.85;2.17;;;9.90;99.90;;;;;;10090397;28;20383;-66
2022/11/08 05:11:07;;;;;;;3.80;2.00;;;9.90;99.90;;;;;;10081703;28;20037;-63
2022/11/08 05:16:07;;;;;;;4.03;2.10;;;9.80;99.90;;;;;;10088565;28;20028;-63
2022/11/08 05:26:09;;;;;;;6.18;1.73;;;9.80;99.90;;;;;;10079837;28;20095;-65
2022/11/08 05:31:00;;;;;;;5.50;2.00;;;9.70;99.90;;;;;;10084168;28;20102;-65
2022/11/08 05:35:51;;;;;;;7.40;2.10;;;9.70;99.90;;;;;;10082777;28;20042;-66
2022/11/08 05:40:42;;;;;;;5.13;2.60;;;9.80;99.90;;;;;;10077320;28;20553;-65
2022/11/08 05:45:33;;;;;;;5.20;2.33;;;9.80;99.90;;;;;;10073717;28;20088;-67
2022/11/08 05:50:23;;;;;;;3.95;2.38;;;9.80;99.90;;;;;;10076573;28;20072;-66
2022/11/08 05:55:14;;;;;;;3.08;1.98;;;9.70;99.90;;;;;;10092369;28;20281;-65
2022/11/08 06:00:06;;;;;;;2.60;1.88;;;9.70;99.90;;;;;;10105877;28;20065;-65
2022/11/08 06:04:56;;;;;;;4.68;1.88;;;9.70;99.90;;;;;;10086344;28;20057;-65
2022/11/08 06:09:47;;;;;;;5.43;2.03;;;9.80;99.90;;;;;;10091272;28;20392;-64
2022/11/08 06:14:37;;;;;;;2.05;1.70;;;9.80;99.90;;;;;;10096821;28;20031;-65
2022/11/08 06:19:28;;;;;;;4.30;1.85;;;9.90;99.90;;;;;;10082207;28;20017;-67
2022/11/08 06:24:19;;;;;;;3.22;2.15;;;9.90;99.90;;;;;;10085812;28;20030;-66
2022/11/08 06:29:09;;;;;;;5.07;1.60;;;10.00;99.90;;;;;;10087785;28;20038;-67
2022/11/08 06:34:00;;;;;;;3.63;2.38;;;10.00;99.90;;;;;;10084800;28;20046;-62
2022/11/08 06:38:55;;;;;;;3.30;1.80;;;10.10;99.90;;;;;;10088174;28;20033;-64
2022/11/08 06:43:46;;;;;;;4.55;2.03;;;10.10;99.90;;;;;;10095831;28;20021;-64
2022/11/08 06:48:37;;;;;;;4.45;2.30;;;10.20;99.90;;;;;;10088847;28;20175;-63
2022/11/08 06:53:27;;;;;;;3.55;2.10;;;10.30;99.90;;;;;;10090837;28;20032;-64
2022/11/08 06:58:18;;;;;;;3.97;2.03;;;10.40;99.90;;;;;;10083762;28;20034;-66
2022/11/08 07:03:09;;;;;;;3.13;2.10;;;10.50;99.90;;;;;;10085173;28;20105;-65
2022/11/08 07:08:00;;;;;;;4.50;2.30;;;10.50;99.90;;;;;;10083638;28;20419;-65
2022/11/08 07:13:11;;;;;;;5.35;1.90;;;10.50;99.90;;;;;;10096080;28;20033;-64
2022/11/08 07:18:04;;;;;;;3.97;1.60;;;10.60;99.90;;;;;;10098683;28;20032;-64
2022/11/08 07:22:56;;;;;;;2.28;1.23;;;10.70;99.90;;;;;;10096215;28;20044;-65
2022/11/08 07:27:46;;;;;;;4.20;1.65;;;10.70;99.90;;;;;;10088241;28;20052;-64
2022/11/08 07:32:37;;;;;;;4.70;1.83;;;10.80;99.90;;;;;;10085470;28;20503;-66
2022/11/08 07:37:28;;;;;;;4.20;1.77;;;10.80;99.90;;;;;;10071399;28;20029;-65
2022/11/08 07:42:18;;;;;;;3.20;1.80;;;10.80;99.90;;;;;;10068504;28;20064;-64
2022/11/08 07:47:09;;;;;;;3.03;1.70;;;10.90;99.90;;;;;;10067465;28;20023;-66
2022/11/08 07:51:59;;;;;;;4.57;1.95;;;10.90;99.90;;;;;;10075799;28;20055;-65
2022/11/08 07:56:50;;;;;;;3.28;1.73;;;11.10;99.90;;;;;;10073741;28;20192;-64
2022/11/08 08:01:40;;;;;;;3.83;2.88;;;11.10;99.90;;;;;;10070014;28;20029;-66
2022/11/08 08:06:31;;;;;;;6.28;2.65;;;11.00;99.90;;;;;;10068360;28;20257;-68
2022/11/08 08:11:22;;;;;;;4.78;2.53;;;10.90;99.90;;;;;;10073284;28;20067;-65
2022/11/08 08:16:12;;;;;;;4.90;2.03;;;11.00;99.90;;;;;;10065120;28;20029;-64
2022/11/08 08:21:03;;;;;;;2.58;1.55;;;11.00;99.90;;;;;;10055617;28;20025;-68
2022/11/08 08:25:54;;;;;;;2.17;1.52;;;11.00;99.90;;;;;;10061931;28;20030;-66
2022/11/08 08:30:45;;;;;;;3.83;2.10;;;11.00;99.90;;;;;;10054960;28;20090;-65
2022/11/08 08:35:36;;;;;;;2.97;1.73;;;11.00;99.90;;;;;;10059860;28;20037;-65
2022/11/08 08:40:27;;;;;;;3.95;2.67;;;11.10;99.90;;;;;;10075254;28;20051;-69
2022/11/08 08:45:18;;;;;;;3.42;2.10;;;11.10;99.90;;;;;;10079264;28;20030;-62
2022/11/08 08:50:09;;;;;;;8.77;2.38;;;11.10;99.90;;;;;;10074628;28;20060;-63
2022/11/08 08:54:59;;;;;;;6.53;2.85;;;11.20;99.90;;;;;;10079813;28;20028;-62
2022/11/08 08:59:50;;;;;;;4.72;2.33;;;11.40;99.90;;;;;;10076675;28;20103;-63
2022/11/08 09:04:40;;;;;;;3.15;2.17;;;11.60;99.90;;;;;;10081555;28;20082;-64
2022/11/08 09:09:33;;;;;;;36.90;5.82;;;11.80;99.90;;;;;;10079256;28;20035;-64
2022/11/08 09:14:23;;;;;;;6.88;2.45;;;12.00;99.90;;;;;;10079499;28;20096;-65
2022/11/08 09:19:14;;;;;;;5.00;2.17;;;12.10;99.90;;;;;;10073063;28;20029;-63
2022/11/08 09:24:05;;;;;;;2.55;1.88;;;12.30;99.90;;;;;;10068047;28;20132;-63
2022/11/08 09:28:55;;;;;;;3.15;2.08;;;12.40;99.90;;;;;;10075181;28;20104;-62
2022/11/08 09:33:49;;;;;;;9.65;2.70;;;12.60;99.90;;;;;;10065492;28;20159;-64
2022/11/08 09:38:40;;;;;;;3.97;1.90;;;12.70;99.90;;;;;;10073623;28;20032;-61
2022/11/08 09:44:01;;;;;;;3.40;1.90;;;12.80;99.90;;;;;;10070575;28;20104;-63
2022/11/08 09:48:53;;;;;;;9.48;3.03;;;12.90;99.90;;;;;;10061150;28;20033;-63
2022/11/08 09:53:48;;;;;;;3.28;1.92;;;13.10;99.90;;;;;;10062607;28;20345;-61
2022/11/08 09:58:46;;;;;;;6.28;2.45;;;13.10;99.90;;;;;;10063070;28;20037;-62
2022/11/08 10:03:37;;;;;;;2.50;2.30;;;13.20;99.90;;;;;;10062490;28;20025;-66
2022/11/08 10:08:35;;;;;;;4.78;2.47;;;13.30;99.90;;;;;;10069157;28;20052;-66
2022/11/08 10:13:34;;;;;;;5.32;2.20;;;13.50;99.90;;;;;;10062462;28;20025;-67
2022/11/08 10:18:33;;;;;;;6.05;2.47;;;13.60;99.90;;;;;;10068692;28;20041;-66
2022/11/08 10:23:50;;;;;;;2.85;2.10;;;13.80;99.90;;;;;;10072550;28;20098;-69
2022/11/08 10:28:59;;;;;;;3.67;2.58;;;13.90;99.90;;;;;;10076771;28;20035;-62
2022/11/08 10:33:51;;;;;;;2.78;1.67;;;14.10;99.90;;;;;;10060686;28;20148;-65
2022/11/08 10:38:49;;;;;;;6.50;2.33;;;14.20;99.90;;;;;;10064632;28;20028;-63
2022/11/08 10:43:48;;;;;;;3.83;2.17;;;14.30;99.90;;;;;;10075159;28;20061;-63
2022/11/08 10:48:39;;;;;;;4.40;2.28;;;14.60;99.90;;;;;;10079836;28;20477;-62
2022/11/08 10:53:31;;;;;;;5.38;3.10;;;14.80;99.90;;;;;;10088908;28;20048;-64
2022/11/08 10:58:42;;;;;;;4.57;2.50;;;14.90;99.90;;;;;;10081268;28;20428;-62
2022/11/08 11:03:33;;;;;;;4.63;1.88;;;15.20;99.90;;;;;;10084228;28;20063;-63
2022/11/08 11:08:24;;;;;;;4.60;1.75;;;15.30;99.90;;;;;;10086746;28;20151;-65
2022/11/08 11:13:26;;;;;;;3.70;2.10;;;15.40;99.90;;;;;;10078435;28;20583;-65
2022/11/08 11:18:24;;;;;;;13.13;4.05;;;15.30;99.90;;;;;;10076767;28;20608;-65
2022/11/08 11:23:15;;;;;;;5.82;2.70;;;15.40;99.90;;;;;;10083306;28;20082;-65
2022/11/08 11:28:11;;;;;;;12.68;2.95;;;15.50;99.90;;;;;;10083397;28;20090;-66
2022/11/08 11:33:24;;;;;;;10.15;3.63;;;15.50;99.90;;;;;;10082361;28;20048;-66
2022/11/08 11:38:47;;;;;;;8.45;2.42;;;15.80;99.90;;;;;;10081549;28;20029;-64
2022/11/08 11:43:59;;;;;;;4.75;2.03;;;15.90;99.90;;;;;;10047774;28;20447;-65
2022/11/08 11:49:03;;;;;;;3.10;2.03;;;16.00;99.90;;;;;;10070420;28;20075;-64
2022/11/08 11:53:54;;;;;;;3.13;2.08;;;16.20;99.90;;;;;;10076732;28;20112;-65
2022/11/08 11:59:04;;;;;;;3.08;1.77;;;16.30;99.90;;;;;;10081168;28;20033;-70
2022/11/08 12:04:26;;;;;;;1.88;1.67;;;16.40;99.90;;;;;;10077561;28;20035;-65
2022/11/08 12:09:25;;;;;;;4.28;2.35;;;16.40;99.90;;;;;;10082690;28;20503;-69
2022/11/08 12:14:37;;;;;;;2.88;1.27;;;16.40;99.90;;;;;;10074460;28;20597;-68
2022/11/08 12:19:48;;;;;;;6.32;1.52;;;16.30;99.90;;;;;;10082847;28;20431;-66
2022/11/08 12:24:47;;;;;;;2.88;1.58;;;16.20;99.90;;;;;;10086308;28;20032;-67
2022/11/08 12:29:47;;;;;;;4.03;2.13;;;16.10;99.90;;;;;;10085681;28;20087;-66
2022/11/08 12:34:46;;;;;;;7.78;2.33;;;16.10;99.90;;;;;;10084377;28;20037;-64
2022/11/08 12:39:45;;;;;;;8.60;3.20;;;16.10;99.90;;;;;;10082442;28;20021;-65
2022/11/08 12:44:53;;;;;;;2.03;1.33;;;16.20;99.90;;;;;;10080228;28;20048;-65
2022/11/08 12:50:02;;;;;;;5.43;1.65;;;16.30;99.90;;;;;;10069972;28;20547;-64
2022/11/08 12:55:03;;;;;;;4.07;1.88;;;16.40;99.90;;;;;;10070245;28;20028;-63
2022/11/08 13:00:18;;;;;;;2.20;1.83;;;16.40;99.90;;;;;;10073761;28;20041;-62
2022/11/08 13:05:32;;;;;;;10.30;2.10;;;16.40;99.90;;;;;;10066470;28;20128;-67
2022/11/08 13:10:46;;;;;;;3.25;1.85;;;16.50;99.90;;;;;;10073790;28;20044;-66
2022/11/08 13:16:08;;;;;;;17.27;3.30;;;16.50;99.90;;;;;;10062372;28;20040;-70
2022/11/08 13:20:58;;;;;;;1.85;1.05;;;16.60;99.90;;;;;;10068811;28;20025;-66
2022/11/08 13:25:50;;;;;;;1.38;0.95;;;16.80;99.90;;;;;;10073399;28;20025;-66
2022/11/08 13:30:42;;;;;;;3.30;1.60;;;16.90;99.90;;;;;;10072865;28;20036;-68
2022/11/08 13:36:06;;;;;;;3.28;1.55;;;17.00;99.90;;;;;;10053869;28;20045;-66
2022/11/08 13:41:08;;;;;;;1.60;1.10;;;16.90;99.90;;;;;;10071916;28;20033;-69
2022/11/08 13:46:44;;;;;;;2.95;1.80;;;17.00;99.90;;;;;;10074581;28;20025;-66
2022/11/08 13:51:35;;;;;;;2.53;1.48;;;17.00;99.90;;;;;;10002529;28;20233;-65
2022/11/08 13:56:44;;;;;;;3.40;1.50;;;17.10;99.90;;;;;;10057663;28;20275;-64
2022/11/08 14:01:46;;;;;;;1.77;1.30;;;16.90;99.90;;;;;;10073449;28;20038;-65
2022/11/08 14:06:49;;;;;;;4.70;1.10;;;16.90;99.90;;;;;;10071275;28;20104;-65
2022/11/08 14:11:40;;;;;;;1.83;1.30;;;16.90;99.90;;;;;;10073088;28;20116;-65
2022/11/08 14:16:42;;;;;;;3.95;1.52;;;16.90;99.90;;;;;;10068886;28;20115;-66
2022/11/08 14:21:33;;;;;;;3.42;1.40;;;16.90;99.90;;;;;;10069694;28;20099;-65
2022/11/08 14:26:24;;;;;;;2.05;1.33;;;16.90;99.90;;;;;;10078957;28;20570;-63
2022/11/08 14:31:28;;;;;;;3.30;1.50;;;16.90;99.90;;;;;;10060528;28;20253;-65
2022/11/08 14:36:20;;;;;;;3.25;1.33;;;16.90;99.90;;;;;;10068520;28;20049;-64
2022/11/08 14:41:15;;;;;;;5.55;1.20;;;16.80;99.90;;;;;;10082293;28;20167;-64
2022/11/08 14:46:11;;;;;;;1.65;1.13;;;16.70;99.90;;;;;;10078081;28;20024;-66
2022/11/08 14:51:05;;;;;;;5.63;1.40;;;16.60;99.90;;;;;;10083951;28;20403;-64
2022/11/08 14:56:21;;;;;;;4.15;2.65;;;16.50;99.90;;;;;;10083655;28;20506;-65
2022/11/08 15:01:14;;;;;;;4.32;1.70;;;16.40;99.90;;;;;;10084509;28;20149;-66
2022/11/08 15:06:06;;;;;;;4.55;1.70;;;16.30;99.90;;;;;;10085302;28;20009;-65
2022/11/08 15:11:04;;;;;;;2.75;1.90;;;16.20;99.90;;;;;;10085826;28;20041;-64
2022/11/08 15:16:01;;;;;;;3.47;2.53;;;16.20;99.90;;;;;;10082249;28;20079;-63
2022/11/08 15:21:05;;;;;;;3.60;1.48;;;16.10;99.90;;;;;;10084035;28;20711;-64
2022/11/08 15:25:58;;;;;;;7.85;2.05;;;16.00;99.90;;;;;;10081759;28;20017;-66
2022/11/08 15:30:57;;;;;;;4.10;1.95;;;16.00;99.90;;;;;;10083086;28;20574;-63
2022/11/08 15:35:49;;;;;;;10.23;4.95;;;15.90;99.90;;;;;;10076504;28;20084;-64
2022/11/08 15:40:51;;;;;;;4.85;3.53;;;15.80;99.90;;;;;;10080809;28;20019;-64
2022/11/08 15:45:52;;;;;;;4.18;2.38;;;15.70;99.90;;;;;;10073268;28;20061;-64
2022/11/08 15:50:42;;;;;;;4.03;2.53;;;15.60;99.90;;;;;;10073183;28;20079;-63
2022/11/08 15:56:04;;;;;;;4.13;2.30;;;15.50;99.90;;;;;;10071337;28;20521;-63
2022/11/08 16:00:56;;;;;;;3.90;2.40;;;15.50;99.90;;;;;;10075097;28;20077;-67
2022/11/08 16:05:47;;;;;;;4.03;2.60;;;15.40;99.90;;;;;;10073765;28;20029;-61
2022/11/08 16:10:43;;;;;;;6.28;3.55;;;15.30;99.90;;;;;;10063889;28;20045;-64
2022/11/08 16:15:36;;;;;;;6.00;3.00;;;15.20;99.90;;;;;;10068324;28;20029;-62
2022/11/08 16:20:37;;;;;;;7.03;3.08;;;15.20;99.90;;;;;;10065780;28;20123;-63
2022/11/08 16:25:32;;;;;;;8.15;3.97;;;15.10;99.90;;;;;;10079633;28;20025;-63
2022/11/08 16:30:23;;;;;;;7.18;2.72;;;15.00;99.90;;;;;;10073596;28;20510;-64
2022/11/08 16:35:14;;;;;;;4.10;2.50;;;15.00;99.90;;;;;;10076024;28;20056;-67
2022/11/08 16:40:22;;;;;;;5.47;2.95;;;15.00;99.90;;;;;;10080944;28;20135;-63
2022/11/08 16:45:14;;;;;;;4.85;3.17;;;14.90;99.90;;;;;;10074403;28;20514;-67
2022/11/08 16:50:06;;;;;;;5.88;2.97;;;14.90;99.90;;;;;;10075623;28;20099;-63
2022/11/08 16:54:57;;;;;;;8.10;3.45;;;14.90;99.90;;;;;;10081114;28;20553;-71
2022/11/08 16:59:47;;;;;;;8.68;5.53;;;14.90;99.90;;;;;;10090099;28;20087;-66
2022/11/08 17:04:38;;;;;;;9.88;4.40;;;14.80;99.90;;;;;;10082409;28;20527;-67
2022/11/08 17:09:28;;;;;;;10.35;4.82;;;14.80;99.90;;;;;;10076102;28;20036;-66
2022/11/08 17:14:19;;;;;;;9.30;5.25;;;14.80;99.90;;;;;;10081253;28;20064;-62
2022/11/08 17:19:10;;;;;;;11.05;3.72;;;14.70;99.90;;;;;;10066202;28;20036;-65
2022/11/08 17:24:00;;;;;;;6.88;3.72;;;14.70;99.90;;;;;;10087102;28;20083;-69
2022/11/08 17:28:55;;;;;;;7.95;3.90;;;14.70;99.90;;;;;;10077352;28;20044;-71
2022/11/08 17:33:45;;;;;;;8.95;3.97;;;14.70;99.90;;;;;;10070241;28;20060;-71
2022/11/08 17:38:37;;;;;;;7.07;4.32;;;14.70;99.90;;;;;;10069948;28;20052;-67
2022/11/08 17:43:28;;;;;;;5.43;3.65;;;14.70;99.90;;;;;;10060511;28;20028;-66
2022/11/08 17:48:19;;;;;;;7.28;4.55;;;14.70;99.90;;;;;;10068890;28;20033;-67
2022/11/08 17:53:09;;;;;;;7.70;5.13;;;14.70;99.90;;;;;;10078497;28;20033;-69
2022/11/08 17:58:00;;;;;;;10.18;3.80;;;14.70;99.90;;;;;;10092760;28;20376;-67
2022/11/08 18:02:50;;;;;;;8.82;3.80;;;14.80;99.90;;;;;;10087545;28;20118;-69
2022/11/08 18:07:41;;;;;;;8.32;3.97;;;14.80;99.90;;;;;;10079118;28;20036;-70
2022/11/08 18:12:32;;;;;;;7.72;3.35;;;14.80;99.90;;;;;;10086552;28;20390;-68
2022/11/08 18:17:22;;;;;;;4.55;3.70;;;14.80;99.90;;;;;;10095243;28;20029;-66
2022/11/08 18:22:13;;;;;;;8.75;3.25;;;14.80;99.90;;;;;;10092106;28;20017;-69
2022/11/08 18:27:04;;;;;;;6.53;3.47;;;14.80;99.90;;;;;;10087810;28;20060;-68
2022/11/08 18:31:54;;;;;;;6.50;3.85;;;14.70;99.90;;;;;;10072417;28;20104;-67
2022/11/08 18:36:47;;;;;;;4.75;3.00;;;14.70;99.90;;;;;;10076222;28;20029;-66
2022/11/08 18:41:38;;;;;;;6.10;3.88;;;14.70;99.90;;;;;;10090964;28;20040;-64
2022/11/08 18:46:32;;;;;;;9.43;4.30;;;14.60;99.90;;;;;;10063376;28;20021;-65
2022/11/08 18:51:23;;;;;;;6.40;3.75;;;14.60;99.90;;;;;;10085619;28;20514;-66
2022/11/08 18:56:15;;;;;;;6.50;5.00;;;14.60;99.90;;;;;;10080265;28;20159;-70
2022/11/08 19:01:06;;;;;;;5.53;3.60;;;14.70;99.90;;;;;;10085901;28;20111;-64
2022/11/08 19:05:57;;;;;;;8.65;3.63;;;14.70;99.90;;;;;;10074084;28;20028;-67
2022/11/08 19:10:52;;;;;;;6.03;3.65;;;14.70;99.90;;;;;;10076367;28;20637;-68
2022/11/08 19:15:43;;;;;;;5.38;3.10;;;14.70;99.90;;;;;;10075823;28;20049;-64
2022/11/08 19:20:33;;;;;;;8.65;4.18;;;14.70;99.90;;;;;;10073428;28;20115;-67
2022/11/08 19:25:24;;;;;;;7.63;4.03;;;14.60;99.90;;;;;;10078355;28;20028;-67
2022/11/08 19:30:15;;;;;;;7.40;4.20;;;14.70;99.90;;;;;;10080376;28;20052;-68
2022/11/08 19:35:06;;;;;;;11.20;4.57;;;14.60;99.90;;;;;;10082723;28;20050;-67
2022/11/08 19:39:56;;;;;;;9.23;4.28;;;14.60;99.90;;;;;;10074623;28;20565;-67
2022/11/08 19:44:47;;;;;;;8.25;5.10;;;14.50;99.90;;;;;;10070277;28;20025;-67
2022/11/08 19:49:37;;;;;;;7.72;4.65;;;14.50;99.90;;;;;;10073438;28;20045;-68
2022/11/08 19:54:28;;;;;;;11.35;5.57;;;14.40;99.90;;;;;;10073111;28;20498;-65
2022/11/08 19:59:19;;;;;;;12.32;4.78;;;14.40;99.90;;;;;;10075483;28;20114;-69
2022/11/08 20:04:10;;;;;;;6.13;4.18;;;14.40;99.90;;;;;;10089616;28;20029;-66
2022/11/08 20:09:02;;;;;;;10.60;4.95;;;14.40;99.90;;;;;;10072753;28;20411;-66
2022/11/08 20:13:53;;;;;;;6.97;4.50;;;14.40;99.90;;;;;;10076304;28;20124;-63
2022/11/08 20:18:44;;;;;;;11.02;4.38;;;14.50;99.90;;;;;;10065600;28;20111;-65
2022/11/08 20:23:35;;;;;;;6.65;4.10;;;14.50;99.90;;;;;;10064634;28;20037;-69
2022/11/08 20:28:27;;;;;;;7.45;4.20;;;14.50;99.90;;;;;;10079767;28;20037;-71
2022/11/08 20:33:17;;;;;;;8.30;4.10;;;14.50;99.90;;;;;;10073616;28;20045;-69
2022/11/08 20:38:08;;;;;;;7.40;3.67;;;14.60;99.90;;;;;;10069478;28;20040;-71
2022/11/08 20:42:58;;;;;;;7.70;4.75;;;14.70;99.90;;;;;;10074323;28;20465;-65
2022/11/08 20:47:49;;;;;;;9.95;4.05;;;14.70;99.90;;;;;;10078012;28;20021;-69
2022/11/08 20:52:39;;;;;;;7.32;4.05;;;14.70;99.90;;;;;;10081010;28;20025;-69
2022/11/08 20:57:30;;;;;;;6.43;4.25;;;14.70;99.90;;;;;;10087679;28;20025;-68
2022/11/08 21:02:21;;;;;;;10.38;5.05;;;14.70;99.90;;;;;;10091736;28;20025;-74
2022/11/08 21:07:11;;;;;;;17.73;6.13;;;14.60;99.90;;;;;;10080020;28;20389;-69
2022/11/08 21:12:02;;;;;;;9.07;5.78;;;14.60;99.90;;;;;;10087580;28;20411;-69
2022/11/08 21:16:53;;;;;;;11.88;4.95;;;14.50;99.90;;;;;;10086712;28;20016;-68
2022/11/08 21:21:46;;;;;;;12.13;5.70;;;14.50;99.90;;;;;;10091089;28;20033;-68
2022/11/08 21:26:36;;;;;;;12.25;5.93;;;14.50;99.90;;;;;;10081358;28;20071;-70
2022/11/08 21:31:28;;;;;;;11.38;6.15;;;14.50;99.90;;;;;;10085881;28;20110;-67
2022/11/08 21:36:19;;;;;;;44.95;17.98;;;14.40;99.90;;;;;;10084552;28;20069;-69
2022/11/08 21:41:10;;;;;;;11.82;6.15;;;14.40;99.90;;;;;;10077513;28;20041;-65
2022/11/08 21:46:09;;;;;;;9.60;4.95;;;14.40;99.90;;;;;;10071276;28;20071;-67
2022/11/08 21:51:03;;;;;;;12.70;4.15;;;14.30;99.90;;;;;;10070684;28;20045;-62
2022/11/08 21:55:57;;;;;;;7.65;4.40;;;14.30;99.90;;;;;;10069479;28;20661;-64
2022/11/08 22:00:51;;;;;;;8.85;4.05;;;14.30;99.90;;;;;;10075084;28;20104;-64
2022/11/08 22:05:45;;;;;;;7.72;4.03;;;14.20;99.90;;;;;;10065223;28;20143;-62
2022/11/08 22:10:36;;;;;;;5.93;3.53;;;14.20;99.90;;;;;;10071650;28;20037;-61
2022/11/08 22:15:26;;;;;;;6.15;3.45;;;14.20;99.90;;;;;;10073570;28;20028;-62
2022/11/08 22:20:17;;;;;;;11.32;3.20;;;14.10;99.90;;;;;;10075095;28;20548;-63
2022/11/08 22:25:08;;;;;;;6.13;3.47;;;14.20;99.90;;;;;;10068296;28;20560;-63
2022/11/08 22:29:58;;;;;;;6.20;4.50;;;14.20;99.90;;;;;;10073188;28;20416;-63
2022/11/08 22:34:49;;;;;;;9.95;4.07;;;14.20;99.90;;;;;;10073826;28;20183;-63
2022/11/08 22:39:40;;;;;;;7.72;3.83;;;14.10;99.90;;;;;;10080403;28;20048;-61
2022/11/08 22:44:30;;;;;;;5.68;3.67;;;14.10;99.90;;;;;;10080759;28;20449;-61
2022/11/08 22:49:21;;;;;;;6.10;3.17;;;14.10;99.90;;;;;;10067167;28;20029;-62
2022/11/08 22:54:12;;;;;;;7.72;4.00;;;14.10;99.90;;;;;;10085896;28;20032;-62
2022/11/08 22:59:03;;;;;;;7.85;5.05;;;14.10;99.90;;;;;;10087444;28;20031;-61
2022/11/08 23:03:53;;;;;;;12.98;7.20;;;14.10;99.90;;;;;;10064499;28;20108;-62
2022/11/08 23:08:46;;;;;;;16.58;7.72;;;14.10;99.90;;;;;;10081814;28;20233;-62
2022/11/08 23:24:18;;;;;;;9.50;5.07;;;14.00;99.90;;;;;;10079187;28;20375;-61
2022/11/08 23:34:18;;;;;;;4.47;3.58;;;14.10;99.90;;;;;;10082980;28;20078;-61
2022/11/08 23:39:09;;;;;;;6.32;3.78;;;14.10;99.90;;;;;;10080188;28;20103;-64
2022/11/08 23:49:08;;;;;;;8.23;4.13;;;14.20;99.90;;;;;;10072244;28;20105;-61
2022/11/08 23:53:59;;;;;;;7.45;3.53;;;14.10;99.90;;;;;;10077411;28;20547;-60
2022/11/08 23:58:54;;;;;;;4.60;3.47;;;14.10;99.90;;;;;;10074835;28;20025;-62
